sensor_id;sensor_type;location;lat;lon;timestamp;P1;durP1;ratioP1;P2;durP2;ratioP2
74168;SDS011;62523;53.336;83.690;2023-04-03T00:02:24;42.08;;;17.00;;
74168;SDS011;62523;53.336;83.690;2023-04-03T00:07:25;17.50;;;10.05;;
74168;SDS011;62523;53.336;83.690;2023-04-03T00:12:27;25.07;;;9.10;;
74168;SDS011;62523;53.336;83.690;2023-04-03T00:17:28;34.67;;;11.32;;
74168;SDS011;62523;53.336;83.690;2023-04-03T00:22:29;33.13;;;10.98;;
74168;SDS011;62523;53.336;83.690;2023-04-03T00:27:30;41.60;;;11.20;;
74168;SDS011;62523;53.336;83.690;2023-04-03T00:32:31;35.20;;;13.50;;
74168;SDS011;62523;53.336;83.690;2023-04-03T00:37:33;31.90;;;12.90;;
74168;SDS011;62523;53.336;83.690;2023-04-03T00:42:34;43.67;;;15.23;;
74168;SDS011;62523;53.336;83.690;2023-04-03T00:47:36;55.42;;;16.48;;
74168;SDS011;62523;53.336;83.690;2023-04-03T00:52:41;60.30;;;17.48;;
74168;SDS011;62523;53.336;83.690;2023-04-03T00:57:42;47.50;;;17.43;;
74168;SDS011;62523;53.336;83.690;2023-04-03T01:02:43;66.80;;;16.93;;
74168;SDS011;62523;53.336;83.690;2023-04-03T01:12:48;108.18;;;22.52;;
74168;SDS011;62523;53.336;83.690;2023-04-03T01:17:52;80.30;;;17.20;;
74168;SDS011;62523;53.336;83.690;2023-04-03T01:28:14;104.32;;;27.88;;
74168;SDS011;62523;53.336;83.690;2023-04-03T01:33:25;31.77;;;11.25;;
74168;SDS011;62523;53.336;83.690;2023-04-03T01:38:27;36.10;;;13.80;;
74168;SDS011;62523;53.336;83.690;2023-04-03T01:43:28;29.47;;;10.03;;
74168;SDS011;62523;53.336;83.690;2023-04-03T01:48:29;37.88;;;16.60;;
74168;SDS011;62523;53.336;83.690;2023-04-03T01:53:30;66.85;;;20.90;;
74168;SDS011;62523;53.336;83.690;2023-04-03T01:58:31;33.27;;;13.87;;
74168;SDS011;62523;53.336;83.690;2023-04-03T02:03:32;34.30;;;13.50;;
74168;SDS011;62523;53.336;83.690;2023-04-03T02:08:34;30.40;;;7.43;;
74168;SDS011;62523;53.336;83.690;2023-04-03T02:13:35;17.07;;;5.50;;
74168;SDS011;62523;53.336;83.690;2023-04-03T02:18:36;10.43;;;5.28;;
74168;SDS011;62523;53.336;83.690;2023-04-03T02:23:38;16.23;;;6.75;;
74168;SDS011;62523;53.336;83.690;2023-04-03T02:28:39;15.20;;;5.50;;
74168;SDS011;62523;53.336;83.690;2023-04-03T02:38:42;29.85;;;9.85;;
74168;SDS011;62523;53.336;83.690;2023-04-03T02:43:43;22.87;;;4.43;;
74168;SDS011;62523;53.336;83.690;2023-04-03T02:48:45;29.88;;;4.15;;
74168;SDS011;62523;53.336;83.690;2023-04-03T02:53:46;16.73;;;5.82;;
74168;SDS011;62523;53.336;83.690;2023-04-03T02:58:47;20.15;;;4.35;;
74168;SDS011;62523;53.336;83.690;2023-04-03T03:03:48;9.97;;;3.73;;
74168;SDS011;62523;53.336;83.690;2023-04-03T03:08:49;7.82;;;3.35;;
74168;SDS011;62523;53.336;83.690;2023-04-03T03:13:51;6.15;;;1.98;;
74168;SDS011;62523;53.336;83.690;2023-04-03T03:18:52;17.43;;;2.23;;
74168;SDS011;62523;53.336;83.690;2023-04-03T03:23:53;12.80;;;2.43;;
74168;SDS011;62523;53.336;83.690;2023-04-03T03:28:54;15.40;;;2.90;;
74168;SDS011;62523;53.336;83.690;2023-04-03T03:33:55;5.60;;;2.53;;
74168;SDS011;62523;53.336;83.690;2023-04-03T03:38:57;12.37;;;2.97;;
74168;SDS011;62523;53.336;83.690;2023-04-03T03:43:58;12.13;;;2.95;;
74168;SDS011;62523;53.336;83.690;2023-04-03T03:48:59;13.93;;;4.10;;
74168;SDS011;62523;53.336;83.690;2023-04-03T03:54:00;15.30;;;3.90;;
74168;SDS011;62523;53.336;83.690;2023-04-03T03:59:02;7.33;;;3.93;;
74168;SDS011;62523;53.336;83.690;2023-04-03T04:04:03;5.65;;;3.75;;
74168;SDS011;62523;53.336;83.690;2023-04-03T04:09:04;14.63;;;4.87;;
74168;SDS011;62523;53.336;83.690;2023-04-03T04:14:06;10.73;;;4.93;;
74168;SDS011;62523;53.336;83.690;2023-04-03T04:19:07;9.80;;;2.30;;
74168;SDS011;62523;53.336;83.690;2023-04-03T04:24:08;12.23;;;3.27;;
74168;SDS011;62523;53.336;83.690;2023-04-03T04:29:10;20.85;;;3.60;;
74168;SDS011;62523;53.336;83.690;2023-04-03T04:34:11;21.47;;;7.03;;
74168;SDS011;62523;53.336;83.690;2023-04-03T04:39:13;5.43;;;2.47;;
74168;SDS011;62523;53.336;83.690;2023-04-03T04:44:14;9.05;;;4.53;;
74168;SDS011;62523;53.336;83.690;2023-04-03T04:49:15;5.07;;;2.80;;
74168;SDS011;62523;53.336;83.690;2023-04-03T04:54:16;10.98;;;3.33;;
74168;SDS011;62523;53.336;83.690;2023-04-03T04:59:19;15.38;;;2.85;;
74168;SDS011;62523;53.336;83.690;2023-04-03T05:04:21;11.90;;;4.13;;
74168;SDS011;62523;53.336;83.690;2023-04-03T05:09:22;6.97;;;3.27;;
74168;SDS011;62523;53.336;83.690;2023-04-03T05:14:23;6.20;;;2.77;;
74168;SDS011;62523;53.336;83.690;2023-04-03T05:19:25;4.32;;;2.50;;
74168;SDS011;62523;53.336;83.690;2023-04-03T05:24:26;11.73;;;6.13;;
74168;SDS011;62523;53.336;83.690;2023-04-03T05:29:27;11.45;;;5.28;;
74168;SDS011;62523;53.336;83.690;2023-04-03T05:34:29;14.70;;;5.50;;
74168;SDS011;62523;53.336;83.690;2023-04-03T05:39:30;20.37;;;7.37;;
74168;SDS011;62523;53.336;83.690;2023-04-03T05:44:32;11.90;;;5.32;;
74168;SDS011;62523;53.336;83.690;2023-04-03T05:49:34;7.43;;;3.38;;
74168;SDS011;62523;53.336;83.690;2023-04-03T05:54:36;28.52;;;5.05;;
74168;SDS011;62523;53.336;83.690;2023-04-03T06:04:38;12.13;;;4.30;;
74168;SDS011;62523;53.336;83.690;2023-04-03T06:09:40;13.93;;;5.15;;
74168;SDS011;62523;53.336;83.690;2023-04-03T06:14:41;16.80;;;5.68;;
74168;SDS011;62523;53.336;83.690;2023-04-03T06:19:43;9.57;;;3.97;;
74168;SDS011;62523;53.336;83.690;2023-04-03T06:24:45;17.85;;;4.28;;
74168;SDS011;62523;53.336;83.690;2023-04-03T06:34:49;13.45;;;4.10;;
74168;SDS011;62523;53.336;83.690;2023-04-03T06:39:51;15.02;;;5.40;;
74168;SDS011;62523;53.336;83.690;2023-04-03T06:44:53;38.05;;;6.90;;
74168;SDS011;62523;53.336;83.690;2023-04-03T06:49:54;23.50;;;4.97;;
74168;SDS011;62523;53.336;83.690;2023-04-03T06:54:55;14.83;;;4.00;;
74168;SDS011;62523;53.336;83.690;2023-04-03T07:00:00;12.02;;;3.55;;
74168;SDS011;62523;53.336;83.690;2023-04-03T07:05:02;3.38;;;1.38;;
74168;SDS011;62523;53.336;83.690;2023-04-03T07:10:05;5.13;;;1.65;;
74168;SDS011;62523;53.336;83.690;2023-04-03T07:15:07;10.15;;;3.25;;
74168;SDS011;62523;53.336;83.690;2023-04-03T07:20:09;5.60;;;2.42;;
74168;SDS011;62523;53.336;83.690;2023-04-03T07:30:13;7.80;;;1.83;;
74168;SDS011;62523;53.336;83.690;2023-04-03T07:40:16;2.17;;;1.52;;
74168;SDS011;62523;53.336;83.690;2023-04-03T07:45:19;6.82;;;2.67;;
74168;SDS011;62523;53.336;83.690;2023-04-03T07:50:23;5.45;;;2.35;;
74168;SDS011;62523;53.336;83.690;2023-04-03T07:55:25;6.47;;;3.28;;
74168;SDS011;62523;53.336;83.690;2023-04-03T08:00:26;5.40;;;2.40;;
74168;SDS011;62523;53.336;83.690;2023-04-03T08:05:29;12.70;;;2.50;;
74168;SDS011;62523;53.336;83.690;2023-04-03T08:10:31;4.57;;;1.88;;
74168;SDS011;62523;53.336;83.690;2023-04-03T08:15:33;4.30;;;2.25;;
74168;SDS011;62523;53.336;83.690;2023-04-03T08:20:34;5.38;;;2.30;;
74168;SDS011;62523;53.336;83.690;2023-04-03T08:25:43;9.20;;;2.45;;
74168;SDS011;62523;53.336;83.690;2023-04-03T08:30:45;4.60;;;2.80;;
74168;SDS011;62523;53.336;83.690;2023-04-03T08:35:46;13.35;;;3.10;;
74168;SDS011;62523;53.336;83.690;2023-04-03T08:40:48;3.17;;;1.57;;
74168;SDS011;62523;53.336;83.690;2023-04-03T08:46:01;6.70;;;2.08;;
74168;SDS011;62523;53.336;83.690;2023-04-03T08:51:16;1.95;;;1.17;;
74168;SDS011;62523;53.336;83.690;2023-04-03T08:56:20;4.80;;;2.00;;
74168;SDS011;62523;53.336;83.690;2023-04-03T09:01:27;4.65;;;1.70;;
74168;SDS011;62523;53.336;83.690;2023-04-03T09:06:35;5.15;;;1.73;;
74168;SDS011;62523;53.336;83.690;2023-04-03T09:27:13;7.03;;;2.83;;
74168;SDS011;62523;53.336;83.690;2023-04-03T09:32:30;3.57;;;1.63;;
74168;SDS011;62523;53.336;83.690;2023-04-03T09:37:44;2.03;;;1.85;;
74168;SDS011;62523;53.336;83.690;2023-04-03T09:42:47;6.30;;;1.90;;
74168;SDS011;62523;53.336;83.690;2023-04-03T09:53:05;4.97;;;2.42;;
74168;SDS011;62523;53.336;83.690;2023-04-03T09:58:22;11.68;;;2.08;;
74168;SDS011;62523;53.336;83.690;2023-04-03T10:03:33;4.50;;;2.17;;
74168;SDS011;62523;53.336;83.690;2023-04-03T10:08:36;4.05;;;2.22;;
74168;SDS011;62523;53.336;83.690;2023-04-03T10:13:49;12.10;;;3.90;;
74168;SDS011;62523;53.336;83.690;2023-04-03T10:19:02;4.35;;;1.98;;
74168;SDS011;62523;53.336;83.690;2023-04-03T10:24:17;4.07;;;1.73;;
74168;SDS011;62523;53.336;83.690;2023-04-03T10:29:22;17.60;;;2.67;;
74168;SDS011;62523;53.336;83.690;2023-04-03T10:55:37;5.28;;;1.95;;
74168;SDS011;62523;53.336;83.690;2023-04-03T11:00:45;3.55;;;1.25;;
74168;SDS011;62523;53.336;83.690;2023-04-03T11:05:51;22.90;;;2.33;;
74168;SDS011;62523;53.336;83.690;2023-04-03T11:10:58;3.42;;;1.75;;
74168;SDS011;62523;53.336;83.690;2023-04-03T11:16:02;8.68;;;3.28;;
74168;SDS011;62523;53.336;83.690;2023-04-03T11:21:27;4.50;;;1.85;;
74168;SDS011;62523;53.336;83.690;2023-04-03T11:26:39;3.97;;;0.90;;
74168;SDS011;62523;53.336;83.690;2023-04-03T11:37:03;6.28;;;1.92;;
74168;SDS011;62523;53.336;83.690;2023-04-03T11:42:32;27.90;;;1.70;;
74168;SDS011;62523;53.336;83.690;2023-04-03T11:47:44;4.35;;;1.65;;
74168;SDS011;62523;53.336;83.690;2023-04-03T12:02:58;25.35;;;3.00;;
74168;SDS011;62523;53.336;83.690;2023-04-03T12:08:46;13.73;;;5.70;;
74168;SDS011;62523;53.336;83.690;2023-04-03T12:13:33;4.53;;;2.83;;
74168;SDS011;62523;53.336;83.690;2023-04-03T12:29:13;10.07;;;3.05;;
74168;SDS011;62523;53.336;83.690;2023-04-03T12:34:26;7.55;;;4.63;;
74168;SDS011;62523;53.336;83.690;2023-04-03T12:45:22;15.13;;;5.67;;
74168;SDS011;62523;53.336;83.690;2023-04-03T12:50:27;9.32;;;5.32;;
74168;SDS011;62523;53.336;83.690;2023-04-03T12:55:31;10.25;;;4.78;;
74168;SDS011;62523;53.336;83.690;2023-04-03T13:05:35;26.65;;;5.57;;
74168;SDS011;62523;53.336;83.690;2023-04-03T13:10:45;24.90;;;5.70;;
74168;SDS011;62523;53.336;83.690;2023-04-03T13:15:52;11.30;;;5.15;;
74168;SDS011;62523;53.336;83.690;2023-04-03T13:26:12;4.07;;;2.20;;
74168;SDS011;62523;53.336;83.690;2023-04-03T13:31:19;5.47;;;2.33;;
74168;SDS011;62523;53.336;83.690;2023-04-03T13:36:30;4.97;;;1.67;;
74168;SDS011;62523;53.336;83.690;2023-04-03T13:41:35;2.13;;;1.35;;
74168;SDS011;62523;53.336;83.690;2023-04-03T13:46:38;8.73;;;3.00;;
74168;SDS011;62523;53.336;83.690;2023-04-03T13:51:39;14.23;;;4.30;;
74168;SDS011;62523;53.336;83.690;2023-04-03T13:56:41;8.85;;;5.47;;
74168;SDS011;62523;53.336;83.690;2023-04-03T14:07:02;7.80;;;4.68;;
74168;SDS011;62523;53.336;83.690;2023-04-03T14:12:08;20.67;;;10.48;;
74168;SDS011;62523;53.336;83.690;2023-04-03T14:17:19;22.30;;;7.93;;
74168;SDS011;62523;53.336;83.690;2023-04-03T14:22:32;27.80;;;6.10;;
74168;SDS011;62523;53.336;83.690;2023-04-03T14:27:38;20.35;;;4.82;;
74168;SDS011;62523;53.336;83.690;2023-04-03T14:32:42;72.72;;;13.85;;
74168;SDS011;62523;53.336;83.690;2023-04-03T14:37:43;17.60;;;6.97;;
74168;SDS011;62523;53.336;83.690;2023-04-03T14:42:45;10.98;;;5.55;;
74168;SDS011;62523;53.336;83.690;2023-04-03T14:47:49;12.82;;;5.03;;
74168;SDS011;62523;53.336;83.690;2023-04-03T14:52:54;9.05;;;2.80;;
74168;SDS011;62523;53.336;83.690;2023-04-03T14:57:58;9.93;;;2.38;;
74168;SDS011;62523;53.336;83.690;2023-04-03T15:02:59;7.20;;;1.83;;
74168;SDS011;62523;53.336;83.690;2023-04-03T15:08:00;11.80;;;6.03;;
74168;SDS011;62523;53.336;83.690;2023-04-03T15:13:02;8.43;;;2.67;;
74168;SDS011;62523;53.336;83.690;2023-04-03T15:18:03;12.38;;;4.03;;
74168;SDS011;62523;53.336;83.690;2023-04-03T15:23:05;11.13;;;4.40;;
74168;SDS011;62523;53.336;83.690;2023-04-03T15:28:06;8.37;;;3.47;;
74168;SDS011;62523;53.336;83.690;2023-04-03T15:33:18;14.95;;;5.70;;
74168;SDS011;62523;53.336;83.690;2023-04-03T15:38:19;17.17;;;6.60;;
74168;SDS011;62523;53.336;83.690;2023-04-03T15:43:21;15.60;;;8.43;;
74168;SDS011;62523;53.336;83.690;2023-04-03T15:48:23;36.08;;;12.23;;
74168;SDS011;62523;53.336;83.690;2023-04-03T15:53:24;21.83;;;8.95;;
74168;SDS011;62523;53.336;83.690;2023-04-03T15:58:26;18.20;;;9.57;;
74168;SDS011;62523;53.336;83.690;2023-04-03T16:03:27;27.57;;;9.80;;
74168;SDS011;62523;53.336;83.690;2023-04-03T16:08:28;18.00;;;7.90;;
74168;SDS011;62523;53.336;83.690;2023-04-03T16:13:29;26.98;;;11.00;;
74168;SDS011;62523;53.336;83.690;2023-04-03T16:18:31;10.13;;;5.10;;
74168;SDS011;62523;53.336;83.690;2023-04-03T16:23:34;4.25;;;3.28;;
74168;SDS011;62523;53.336;83.690;2023-04-03T16:28:36;10.02;;;3.75;;
74168;SDS011;62523;53.336;83.690;2023-04-03T16:33:37;11.63;;;3.97;;
74168;SDS011;62523;53.336;83.690;2023-04-03T16:38:38;6.40;;;4.13;;
74168;SDS011;62523;53.336;83.690;2023-04-03T16:43:39;7.10;;;2.83;;
74168;SDS011;62523;53.336;83.690;2023-04-03T16:48:41;7.15;;;3.75;;
74168;SDS011;62523;53.336;83.690;2023-04-03T16:53:42;12.60;;;4.30;;
74168;SDS011;62523;53.336;83.690;2023-04-03T16:58:43;13.10;;;3.27;;
74168;SDS011;62523;53.336;83.690;2023-04-03T17:03:46;11.95;;;4.35;;
74168;SDS011;62523;53.336;83.690;2023-04-03T17:08:48;7.30;;;3.55;;
74168;SDS011;62523;53.336;83.690;2023-04-03T17:13:50;24.70;;;6.80;;
74168;SDS011;62523;53.336;83.690;2023-04-03T17:18:52;14.50;;;6.07;;
74168;SDS011;62523;53.336;83.690;2023-04-03T17:23:55;32.55;;;6.50;;
74168;SDS011;62523;53.336;83.690;2023-04-03T17:28:59;16.73;;;8.02;;
74168;SDS011;62523;53.336;83.690;2023-04-03T17:34:00;17.20;;;7.63;;
74168;SDS011;62523;53.336;83.690;2023-04-03T17:39:02;22.47;;;6.67;;
74168;SDS011;62523;53.336;83.690;2023-04-03T17:44:03;10.07;;;6.13;;
74168;SDS011;62523;53.336;83.690;2023-04-03T17:54:06;9.52;;;5.15;;
74168;SDS011;62523;53.336;83.690;2023-04-03T17:59:08;12.57;;;3.92;;
74168;SDS011;62523;53.336;83.690;2023-04-03T18:04:10;8.68;;;3.15;;
74168;SDS011;62523;53.336;83.690;2023-04-03T18:09:13;26.70;;;4.85;;
74168;SDS011;62523;53.336;83.690;2023-04-03T18:14:18;11.20;;;5.32;;
74168;SDS011;62523;53.336;83.690;2023-04-03T18:19:22;17.48;;;4.47;;
74168;SDS011;62523;53.336;83.690;2023-04-03T18:24:24;5.18;;;3.55;;
74168;SDS011;62523;53.336;83.690;2023-04-03T18:29:30;9.95;;;4.13;;
74168;SDS011;62523;53.336;83.690;2023-04-03T18:34:33;9.27;;;3.70;;
74168;SDS011;62523;53.336;83.690;2023-04-03T18:39:35;9.27;;;4.45;;
74168;SDS011;62523;53.336;83.690;2023-04-03T18:44:36;9.07;;;5.33;;
74168;SDS011;62523;53.336;83.690;2023-04-03T18:49:39;12.98;;;4.43;;
74168;SDS011;62523;53.336;83.690;2023-04-03T18:54:42;10.68;;;5.40;;
74168;SDS011;62523;53.336;83.690;2023-04-03T18:59:43;14.48;;;4.55;;
74168;SDS011;62523;53.336;83.690;2023-04-03T19:04:45;8.47;;;4.03;;
74168;SDS011;62523;53.336;83.690;2023-04-03T19:09:46;9.68;;;5.38;;
74168;SDS011;62523;53.336;83.690;2023-04-03T19:14:48;12.02;;;5.40;;
74168;SDS011;62523;53.336;83.690;2023-04-03T19:19:49;15.73;;;7.20;;
74168;SDS011;62523;53.336;83.690;2023-04-03T19:24:50;12.10;;;6.83;;
74168;SDS011;62523;53.336;83.690;2023-04-03T19:29:51;9.17;;;6.23;;
74168;SDS011;62523;53.336;83.690;2023-04-03T19:34:52;19.07;;;7.43;;
74168;SDS011;62523;53.336;83.690;2023-04-03T19:39:53;9.53;;;5.40;;
74168;SDS011;62523;53.336;83.690;2023-04-03T19:44:55;13.33;;;5.20;;
74168;SDS011;62523;53.336;83.690;2023-04-03T19:54:57;9.90;;;6.38;;
74168;SDS011;62523;53.336;83.690;2023-04-03T19:59:58;8.03;;;5.47;;
74168;SDS011;62523;53.336;83.690;2023-04-03T20:05:00;4.82;;;3.15;;
74168;SDS011;62523;53.336;83.690;2023-04-03T20:10:02;6.10;;;2.53;;
74168;SDS011;62523;53.336;83.690;2023-04-03T20:20:07;11.13;;;4.90;;
74168;SDS011;62523;53.336;83.690;2023-04-03T20:25:09;12.05;;;7.22;;
74168;SDS011;62523;53.336;83.690;2023-04-03T20:30:12;10.82;;;8.07;;
74168;SDS011;62523;53.336;83.690;2023-04-03T20:35:14;8.00;;;4.90;;
74168;SDS011;62523;53.336;83.690;2023-04-03T20:40:15;14.80;;;5.23;;
74168;SDS011;62523;53.336;83.690;2023-04-03T20:45:17;26.33;;;7.27;;
74168;SDS011;62523;53.336;83.690;2023-04-03T20:50:20;12.30;;;7.20;;
74168;SDS011;62523;53.336;83.690;2023-04-03T20:55:22;17.63;;;6.47;;
74168;SDS011;62523;53.336;83.690;2023-04-03T21:05:25;26.83;;;8.25;;
74168;SDS011;62523;53.336;83.690;2023-04-03T21:21:20;15.37;;;5.47;;
74168;SDS011;62523;53.336;83.690;2023-04-03T21:26:25;8.77;;;4.30;;
74168;SDS011;62523;53.336;83.690;2023-04-03T21:37:03;13.00;;;4.65;;
74168;SDS011;62523;53.336;83.690;2023-04-03T21:42:06;17.50;;;6.55;;
74168;SDS011;62523;53.336;83.690;2023-04-03T21:47:07;9.57;;;5.60;;
74168;SDS011;62523;53.336;83.690;2023-04-03T21:52:08;13.80;;;6.10;;
74168;SDS011;62523;53.336;83.690;2023-04-03T21:57:09;11.48;;;7.82;;
74168;SDS011;62523;53.336;83.690;2023-04-03T22:02:11;13.90;;;8.03;;
74168;SDS011;62523;53.336;83.690;2023-04-03T22:07:12;15.30;;;6.40;;
74168;SDS011;62523;53.336;83.690;2023-04-03T22:12:13;9.67;;;6.13;;
74168;SDS011;62523;53.336;83.690;2023-04-03T22:17:15;15.85;;;6.72;;
74168;SDS011;62523;53.336;83.690;2023-04-03T22:22:16;9.98;;;5.38;;
74168;SDS011;62523;53.336;83.690;2023-04-03T22:27:18;4.63;;;2.70;;
74168;SDS011;62523;53.336;83.690;2023-04-03T22:32:19;3.90;;;2.78;;
74168;SDS011;62523;53.336;83.690;2023-04-03T22:37:20;10.00;;;4.67;;
74168;SDS011;62523;53.336;83.690;2023-04-03T22:42:22;14.53;;;5.63;;
74168;SDS011;62523;53.336;83.690;2023-04-03T22:47:23;18.23;;;8.17;;
74168;SDS011;62523;53.336;83.690;2023-04-03T22:52:24;19.27;;;7.77;;
74168;SDS011;62523;53.336;83.690;2023-04-03T22:57:25;16.47;;;7.53;;
74168;SDS011;62523;53.336;83.690;2023-04-03T23:02:26;14.43;;;8.37;;
74168;SDS011;62523;53.336;83.690;2023-04-03T23:07:27;18.77;;;7.77;;
74168;SDS011;62523;53.336;83.690;2023-04-03T23:12:28;27.63;;;8.73;;
74168;SDS011;62523;53.336;83.690;2023-04-03T23:17:29;16.70;;;5.47;;
74168;SDS011;62523;53.336;83.690;2023-04-03T23:27:32;23.77;;;5.13;;
74168;SDS011;62523;53.336;83.690;2023-04-03T23:32:33;15.50;;;5.83;;
74168;SDS011;62523;53.336;83.690;2023-04-03T23:37:35;9.47;;;3.90;;
74168;SDS011;62523;53.336;83.690;2023-04-03T23:42:36;11.57;;;4.28;;
74168;SDS011;62523;53.336;83.690;2023-04-03T23:47:37;7.40;;;3.97;;
74168;SDS011;62523;53.336;83.690;2023-04-03T23:52:38;14.33;;;4.30;;
74168;SDS011;62523;53.336;83.690;2023-04-03T23:57:40;11.77;;;6.30;;
